sensor_id;sensor_type;location;lat;lon;timestamp;pressure;altitude;pressure_sealevel;temperature;humidity
40502;BME280;29631;49.168;9.848;2023-05-29T00:01:45;96699.47;;;21.86;65.56
40502;BME280;29631;49.168;9.848;2023-05-29T00:04:11;96683.13;;;21.77;65.83
40502;BME280;29631;49.168;9.848;2023-05-29T00:06:38;96716.09;;;21.92;66.23
40502;BME280;29631;49.168;9.848;2023-05-29T00:09:04;96708.06;;;21.88;66.17
40502;BME280;29631;49.168;9.848;2023-05-29T00:11:30;96702.72;;;21.83;66.25
40502;BME280;29631;49.168;9.848;2023-05-29T00:13:56;96698.44;;;21.77;66.29
40502;BME280;29631;49.168;9.848;2023-05-29T00:16:23;96701.13;;;21.77;66.52
40502;BME280;29631;49.168;9.848;2023-05-29T00:18:49;96688.28;;;21.69;66.32
40502;BME280;29631;49.168;9.848;2023-05-29T00:21:17;96706.50;;;21.77;65.79
40502;BME280;29631;49.168;9.848;2023-05-29T00:23:43;96685.31;;;21.65;66.09
40502;BME280;29631;49.168;9.848;2023-05-29T00:26:08;96707.59;;;21.76;66.15
40502;BME280;29631;49.168;9.848;2023-05-29T00:28:35;96710.78;;;21.73;66.00
40502;BME280;29631;49.168;9.848;2023-05-29T00:31:02;96701.44;;;21.65;66.00
40502;BME280;29631;49.168;9.848;2023-05-29T00:33:28;96704.38;;;21.69;66.30
40502;BME280;29631;49.168;9.848;2023-05-29T00:35:53;96696.91;;;21.56;66.32
40502;BME280;29631;49.168;9.848;2023-05-29T00:38:19;96701.16;;;21.62;65.88
40502;BME280;29631;49.168;9.848;2023-05-29T00:40:45;96707.09;;;21.64;66.59
40502;BME280;29631;49.168;9.848;2023-05-29T00:43:11;96691.00;;;21.54;66.19
40502;BME280;29631;49.168;9.848;2023-05-29T00:45:36;96686.16;;;21.46;66.44
40502;BME280;29631;49.168;9.848;2023-05-29T00:48:05;96703.03;;;21.51;66.65
40502;BME280;29631;49.168;9.848;2023-05-29T00:50:32;96692.59;;;21.45;66.50
40502;BME280;29631;49.168;9.848;2023-05-29T00:53:00;96701.16;;;21.47;66.82
40502;BME280;29631;49.168;9.848;2023-05-29T00:55:29;96701.16;;;21.47;66.96
40502;BME280;29631;49.168;9.848;2023-05-29T00:57:55;96689.41;;;21.33;66.66
40502;BME280;29631;49.168;9.848;2023-05-29T01:00:21;96697.72;;;21.31;66.93
40502;BME280;29631;49.168;9.848;2023-05-29T01:02:47;96700.13;;;21.33;66.97
40502;BME280;29631;49.168;9.848;2023-05-29T01:05:14;96695.59;;;21.28;67.47
40502;BME280;29631;49.168;9.848;2023-05-29T01:07:44;96675.22;;;21.08;67.36
40502;BME280;29631;49.168;9.848;2023-05-29T01:10:10;96689.94;;;21.15;67.62
40502;BME280;29631;49.168;9.848;2023-05-29T01:12:44;96691.53;;;21.21;67.33
40502;BME280;29631;49.168;9.848;2023-05-29T01:21:02;96692.13;;;20.98;67.51
40502;BME280;29631;49.168;9.848;2023-05-29T01:23:51;96699.09;;;20.99;67.95
40502;BME280;29631;49.168;9.848;2023-05-29T01:29:10;96696.66;;;20.88;67.74
40502;BME280;29631;49.168;9.848;2023-05-29T01:31:39;96670.94;;;20.77;67.90
40502;BME280;29631;49.168;9.848;2023-05-29T01:34:07;96680.88;;;20.81;67.71
40502;BME280;29631;49.168;9.848;2023-05-29T01:36:32;96659.09;;;20.68;68.09
40502;BME280;29631;49.168;9.848;2023-05-29T01:38:59;96681.13;;;20.75;67.88
40502;BME280;29631;49.168;9.848;2023-05-29T01:41:26;96688.88;;;20.76;67.69
40502;BME280;29631;49.168;9.848;2023-05-29T01:43:53;96697.44;;;20.73;68.05
40502;BME280;29631;49.168;9.848;2023-05-29T01:46:20;96698.50;;;20.72;68.06
40502;BME280;29631;49.168;9.848;2023-05-29T01:48:47;96673.56;;;20.57;68.27
40502;BME280;29631;49.168;9.848;2023-05-29T01:51:13;96677.03;;;20.52;68.11
40502;BME280;29631;49.168;9.848;2023-05-29T01:53:41;96699.03;;;20.59;68.24
40502;BME280;29631;49.168;9.848;2023-05-29T01:56:08;96697.41;;;20.53;68.42
40502;BME280;29631;49.168;9.848;2023-05-29T01:58:35;96698.44;;;20.38;68.48
40502;BME280;29631;49.168;9.848;2023-05-29T02:01:02;96675.41;;;20.32;68.42
40502;BME280;29631;49.168;9.848;2023-05-29T02:03:29;96666.03;;;20.29;68.15
40502;BME280;29631;49.168;9.848;2023-05-29T02:05:57;96691.50;;;20.37;68.23
40502;BME280;29631;49.168;9.848;2023-05-29T02:08:23;96685.03;;;20.28;68.48
40502;BME280;29631;49.168;9.848;2023-05-29T02:10:48;96690.69;;;20.31;68.78
40502;BME280;29631;49.168;9.848;2023-05-29T02:13:14;96686.09;;;20.27;68.59
40502;BME280;29631;49.168;9.848;2023-05-29T02:15:40;96678.63;;;20.24;68.44
40502;BME280;29631;49.168;9.848;2023-05-29T02:18:14;96674.31;;;20.18;68.98
40502;BME280;29631;49.168;9.848;2023-05-29T02:20:41;96675.91;;;20.19;68.88
40502;BME280;29631;49.168;9.848;2023-05-29T02:23:08;96678.06;;;20.17;68.67
40502;BME280;29631;49.168;9.848;2023-05-29T02:25:34;96653.91;;;20.02;68.97
40502;BME280;29631;49.168;9.848;2023-05-29T02:28:01;96682.59;;;20.16;69.00
40502;BME280;29631;49.168;9.848;2023-05-29T02:30:28;96670.53;;;20.09;68.92
40502;BME280;29631;49.168;9.848;2023-05-29T02:32:54;96670.53;;;20.09;69.02
40502;BME280;29631;49.168;9.848;2023-05-29T02:35:20;96658.41;;;19.91;68.58
40502;BME280;29631;49.168;9.848;2023-05-29T02:37:49;96665.13;;;19.99;68.91
40502;BME280;29631;49.168;9.848;2023-05-29T02:40:16;96664.88;;;19.95;68.85
40502;BME280;29631;49.168;9.848;2023-05-29T02:42:42;96680.94;;;20.00;69.29
40502;BME280;29631;49.168;9.848;2023-05-29T02:45:08;96653.81;;;19.82;69.24
40502;BME280;29631;49.168;9.848;2023-05-29T02:47:35;96671.50;;;19.88;68.98
40502;BME280;29631;49.168;9.848;2023-05-29T02:50:01;96673.59;;;19.81;69.33
40502;BME280;29631;49.168;9.848;2023-05-29T02:52:27;96652.97;;;19.71;69.29
40502;BME280;29631;49.168;9.848;2023-05-29T02:54:53;96661.25;;;19.70;69.53
40502;BME280;29631;49.168;9.848;2023-05-29T02:57:24;96667.66;;;19.64;69.35
40502;BME280;29631;49.168;9.848;2023-05-29T02:59:50;96682.13;;;19.73;69.71
40502;BME280;29631;49.168;9.848;2023-05-29T03:02:17;96680.00;;;19.70;69.31
40502;BME280;29631;49.168;9.848;2023-05-29T03:04:44;96669.78;;;19.62;69.47
40502;BME280;29631;49.168;9.848;2023-05-29T03:07:10;96683.16;;;19.62;69.31
40502;BME280;29631;49.168;9.848;2023-05-29T03:09:36;96683.16;;;19.67;69.55
40502;BME280;29631;49.168;9.848;2023-05-29T03:12:02;96674.06;;;19.58;69.51
40502;BME280;29631;49.168;9.848;2023-05-29T03:14:28;96661.69;;;19.47;69.70
40502;BME280;29631;49.168;9.848;2023-05-29T03:16:54;96678.81;;;19.51;69.71
40502;BME280;29631;49.168;9.848;2023-05-29T03:19:20;96676.94;;;19.47;70.04
40502;BME280;29631;49.168;9.848;2023-05-29T03:21:46;96672.59;;;19.36;69.74
40502;BME280;29631;49.168;9.848;2023-05-29T03:24:12;96676.63;;;19.43;70.06
40502;BME280;29631;49.168;9.848;2023-05-29T03:26:41;96664.28;;;19.32;69.56
40502;BME280;29631;49.168;9.848;2023-05-29T03:29:07;96658.34;;;19.20;69.99
40502;BME280;29631;49.168;9.848;2023-05-29T03:31:32;96652.44;;;19.18;70.40
40502;BME280;29631;49.168;9.848;2023-05-29T03:33:59;96669.84;;;19.26;69.96
40502;BME280;29631;49.168;9.848;2023-05-29T03:36:25;96667.44;;;19.24;70.31
40502;BME280;29631;49.168;9.848;2023-05-29T03:38:50;96656.41;;;19.11;69.68
40502;BME280;29631;49.168;9.848;2023-05-29T03:41:16;96652.25;;;18.98;70.21
40502;BME280;29631;49.168;9.848;2023-05-29T03:43:42;96651.22;;;18.99;70.03
40502;BME280;29631;49.168;9.848;2023-05-29T03:46:08;96627.50;;;18.77;70.14
40502;BME280;29631;49.168;9.848;2023-05-29T03:48:33;96682.31;;;19.10;70.24
40502;BME280;29631;49.168;9.848;2023-05-29T03:50:59;96677.22;;;19.09;70.54
40502;BME280;29631;49.168;9.848;2023-05-29T03:53:25;96679.09;;;19.08;70.78
40502;BME280;29631;49.168;9.848;2023-05-29T03:55:51;96671.75;;;18.99;70.72
40502;BME280;29631;49.168;9.848;2023-05-29T03:58:17;96661.88;;;18.94;70.60
40502;BME280;29631;49.168;9.848;2023-05-29T04:00:42;96677.09;;;18.99;70.29
40502;BME280;29631;49.168;9.848;2023-05-29T04:03:08;96673.66;;;18.98;70.81
40502;BME280;29631;49.168;9.848;2023-05-29T04:05:34;96648.38;;;18.80;70.56
40502;BME280;29631;49.168;9.848;2023-05-29T04:08:00;96686.44;;;18.96;70.62
40502;BME280;29631;49.168;9.848;2023-05-29T04:10:26;96685.38;;;18.92;70.84
40502;BME280;29631;49.168;9.848;2023-05-29T04:12:52;96682.66;;;18.88;70.71
40502;BME280;29631;49.168;9.848;2023-05-29T04:15:18;96676.19;;;18.84;70.93
40502;BME280;29631;49.168;9.848;2023-05-29T04:17:43;96690.13;;;18.86;70.77
40502;BME280;29631;49.168;9.848;2023-05-29T04:20:09;96697.41;;;18.95;70.96
40502;BME280;29631;49.168;9.848;2023-05-29T04:22:36;96699.50;;;18.93;70.97
40502;BME280;29631;49.168;9.848;2023-05-29T04:25:03;96684.78;;;18.86;70.99
40502;BME280;29631;49.168;9.848;2023-05-29T04:27:30;96699.78;;;18.92;71.36
40502;BME280;29631;49.168;9.848;2023-05-29T04:29:58;96711.84;;;18.99;71.09
40502;BME280;29631;49.168;9.848;2023-05-29T04:32:24;96704.09;;;18.97;71.43
40502;BME280;29631;49.168;9.848;2023-05-29T04:34:50;96715.34;;;18.99;71.38
40502;BME280;29631;49.168;9.848;2023-05-29T04:37:16;96721.28;;;19.06;72.12
40502;BME280;29631;49.168;9.848;2023-05-29T04:39:43;96657.88;;;18.66;71.75
40502;BME280;29631;49.168;9.848;2023-05-29T04:42:09;96722.34;;;19.05;71.53
40502;BME280;29631;49.168;9.848;2023-05-29T04:44:35;96737.38;;;19.11;72.03
40502;BME280;29631;49.168;9.848;2023-05-29T04:47:00;96722.03;;;19.02;72.25
40502;BME280;29631;49.168;9.848;2023-05-29T04:49:29;96736.06;;;19.14;72.03
40502;BME280;29631;49.168;9.848;2023-05-29T04:51:54;96722.34;;;19.05;71.75
40502;BME280;29631;49.168;9.848;2023-05-29T04:54:22;96719.66;;;19.05;72.19
40502;BME280;29631;49.168;9.848;2023-05-29T04:56:48;96742.00;;;19.21;72.01
40502;BME280;29631;49.168;9.848;2023-05-29T04:59:14;96741.22;;;19.20;72.09
40502;BME280;29631;49.168;9.848;2023-05-29T05:01:40;96750.34;;;19.29;72.15
40502;BME280;29631;49.168;9.848;2023-05-29T05:04:09;96750.41;;;19.34;72.50
40502;BME280;29631;49.168;9.848;2023-05-29T05:06:34;96747.44;;;19.31;72.51
40502;BME280;29631;49.168;9.848;2023-05-29T05:09:00;96743.75;;;19.37;72.34
40502;BME280;29631;49.168;9.848;2023-05-29T05:11:26;96730.59;;;19.35;72.44
40502;BME280;29631;49.168;9.848;2023-05-29T05:13:52;96676.34;;;19.03;72.18
40502;BME280;29631;49.168;9.848;2023-05-29T05:16:18;96755.34;;;19.52;72.72
40502;BME280;29631;49.168;9.848;2023-05-29T05:18:44;96736.34;;;19.54;72.78
40502;BME280;29631;49.168;9.848;2023-05-29T05:21:10;96752.44;;;19.64;72.63
40502;BME280;29631;49.168;9.848;2023-05-29T05:23:36;96753.03;;;19.70;72.75
40502;BME280;29631;49.168;9.848;2023-05-29T05:26:02;96746.31;;;19.68;73.13
40502;BME280;29631;49.168;9.848;2023-05-29T05:28:28;96750.13;;;19.72;72.96
40502;BME280;29631;49.168;9.848;2023-05-29T05:30:53;96765.72;;;19.85;72.97
40502;BME280;29631;49.168;9.848;2023-05-29T05:33:19;96738.31;;;19.73;73.22
40502;BME280;29631;49.168;9.848;2023-05-29T05:35:45;96776.47;;;19.95;73.37
40502;BME280;29631;49.168;9.848;2023-05-29T05:38:11;96768.41;;;19.90;73.03
40502;BME280;29631;49.168;9.848;2023-05-29T05:40:37;96732.44;;;19.71;72.77
40502;BME280;29631;49.168;9.848;2023-05-29T05:43:03;96776.28;;;20.06;72.88
40502;BME280;29631;49.168;9.848;2023-05-29T05:45:29;96749.06;;;19.78;72.70
40502;BME280;29631;49.168;9.848;2023-05-29T05:47:56;96787.28;;;20.15;73.21
40502;BME280;29631;49.168;9.848;2023-05-29T05:50:22;96766.91;;;20.09;72.72
40502;BME280;29631;49.168;9.848;2023-05-29T05:52:47;96790.56;;;20.32;72.90
40502;BME280;29631;49.168;9.848;2023-05-29T05:55:13;96795.97;;;20.37;72.98
40502;BME280;29631;49.168;9.848;2023-05-29T05:57:39;96805.09;;;20.45;73.42
40502;BME280;29631;49.168;9.848;2023-05-29T06:00:05;96792.78;;;20.49;73.51
40502;BME280;29631;49.168;9.848;2023-05-29T06:02:38;96809.16;;;20.58;73.38
40502;BME280;29631;49.168;9.848;2023-05-29T06:05:07;96812.13;;;20.66;72.72
40502;BME280;29631;49.168;9.848;2023-05-29T06:07:33;96778.84;;;20.52;72.83
40502;BME280;29631;49.168;9.848;2023-05-29T06:09:59;96794.72;;;20.69;73.15
40502;BME280;29631;49.168;9.848;2023-05-29T06:12:24;96786.13;;;20.67;72.88
40502;BME280;29631;49.168;9.848;2023-05-29T06:14:50;96774.63;;;20.66;72.86
40502;BME280;29631;49.168;9.848;2023-05-29T06:17:16;96782.97;;;20.75;72.84
40502;BME280;29631;49.168;9.848;2023-05-29T06:19:42;96814.38;;;20.94;72.58
40502;BME280;29631;49.168;9.848;2023-05-29T06:22:08;96788.38;;;20.85;72.59
40502;BME280;29631;49.168;9.848;2023-05-29T06:24:34;96821.88;;;21.02;72.67
40502;BME280;29631;49.168;9.848;2023-05-29T06:27:00;96820.28;;;21.11;72.78
40502;BME280;29631;49.168;9.848;2023-05-29T06:29:27;96826.22;;;21.18;72.68
40502;BME280;29631;49.168;9.848;2023-05-29T06:31:52;96814.41;;;21.14;72.93
40502;BME280;29631;49.168;9.848;2023-05-29T06:34:18;96795.66;;;21.14;72.87
40502;BME280;29631;49.168;9.848;2023-05-29T06:36:44;96825.69;;;21.36;73.27
40502;BME280;29631;49.168;9.848;2023-05-29T06:39:10;96834.81;;;21.50;73.28
40502;BME280;29631;49.168;9.848;2023-05-29T06:41:36;96823.28;;;21.49;73.17
40502;BME280;29631;49.168;9.848;2023-05-29T06:44:01;96827.59;;;21.60;73.09
40502;BME280;29631;49.168;9.848;2023-05-29T06:46:27;96826.25;;;21.68;72.87
40502;BME280;29631;49.168;9.848;2023-05-29T06:48:53;96812.28;;;21.61;73.46
40502;BME280;29631;49.168;9.848;2023-05-29T06:51:18;96827.31;;;21.82;73.27
40502;BME280;29631;49.168;9.848;2023-05-29T06:53:44;96820.31;;;21.81;73.12
40502;BME280;29631;49.168;9.848;2023-05-29T06:56:10;96836.41;;;21.95;73.48
40502;BME280;29631;49.168;9.848;2023-05-29T06:58:36;96831.84;;;22.01;73.23
40502;BME280;29631;49.168;9.848;2023-05-29T07:01:01;96816.00;;;21.99;73.20
40502;BME280;29631;49.168;9.848;2023-05-29T07:03:28;96845.50;;;22.19;73.22
40502;BME280;29631;49.168;9.848;2023-05-29T07:05:54;96834.22;;;22.22;73.71
40502;BME280;29631;49.168;9.848;2023-05-29T07:08:20;96837.97;;;22.31;73.33
40502;BME280;29631;49.168;9.848;2023-05-29T07:10:46;96817.81;;;22.29;73.60
40502;BME280;29631;49.168;9.848;2023-05-29T07:13:16;96793.94;;;22.17;73.66
40502;BME280;29631;49.168;9.848;2023-05-29T07:15:42;96850.78;;;22.59;73.61
40502;BME280;29631;49.168;9.848;2023-05-29T07:18:08;96850.75;;;22.69;73.90
40502;BME280;29631;49.168;9.848;2023-05-29T07:20:35;96836.75;;;22.67;74.42
40502;BME280;29631;49.168;9.848;2023-05-29T07:23:01;96836.19;;;22.75;73.89
40502;BME280;29631;49.168;9.848;2023-05-29T07:25:27;96842.84;;;22.87;74.29
40502;BME280;29631;49.168;9.848;2023-05-29T07:27:53;96851.13;;;22.96;74.40
40502;BME280;29631;49.168;9.848;2023-05-29T07:30:19;96846.53;;;23.06;74.60
40502;BME280;29631;49.168;9.848;2023-05-29T07:32:44;96834.41;;;23.09;74.18
40502;BME280;29631;49.168;9.848;2023-05-29T07:35:10;96841.59;;;23.23;73.92
40502;BME280;29631;49.168;9.848;2023-05-29T07:37:36;96832.16;;;23.26;74.24
40502;BME280;29631;49.168;9.848;2023-05-29T07:40:03;96816.50;;;23.28;74.50
40502;BME280;29631;49.168;9.848;2023-05-29T07:42:35;96848.13;;;23.50;74.37
40502;BME280;29631;49.168;9.848;2023-05-29T07:45:00;96842.63;;;23.60;74.19
40502;BME280;29631;49.168;9.848;2023-05-29T07:47:26;96854.41;;;23.74;73.25
40502;BME280;29631;49.168;9.848;2023-05-29T07:49:52;96846.84;;;23.76;73.53
40502;BME280;29631;49.168;9.848;2023-05-29T07:52:18;96853.75;;;23.87;73.17
40502;BME280;29631;49.168;9.848;2023-05-29T07:54:44;96856.31;;;24.02;73.55
40502;BME280;29631;49.168;9.848;2023-05-29T07:57:10;96860.56;;;24.08;73.85
40502;BME280;29631;49.168;9.848;2023-05-29T07:59:36;96863.16;;;24.18;73.37
40502;BME280;29631;49.168;9.848;2023-05-29T08:02:02;96855.03;;;24.23;73.84
40502;BME280;29631;49.168;9.848;2023-05-29T08:04:30;96865.41;;;24.34;73.49
40502;BME280;29631;49.168;9.848;2023-05-29T08:06:56;96875.53;;;24.47;73.94
40502;BME280;29631;49.168;9.848;2023-05-29T08:09:22;96872.56;;;24.49;73.64
40502;BME280;29631;49.168;9.848;2023-05-29T08:11:47;96867.84;;;24.59;73.15
40502;BME280;29631;49.168;9.848;2023-05-29T08:14:14;96875.53;;;24.71;72.95
40502;BME280;29631;49.168;9.848;2023-05-29T08:16:41;96860.97;;;24.72;73.00
40502;BME280;29631;49.168;9.848;2023-05-29T08:19:07;96858.34;;;24.85;72.56
40502;BME280;29631;49.168;9.848;2023-05-29T08:21:33;96859.09;;;24.90;72.35
40502;BME280;29631;49.168;9.848;2023-05-29T08:23:59;96850.44;;;24.93;72.68
40502;BME280;29631;49.168;9.848;2023-05-29T08:26:26;96869.66;;;25.10;72.62
40502;BME280;29631;49.168;9.848;2023-05-29T08:28:52;96869.31;;;25.17;72.87
40502;BME280;29631;49.168;9.848;2023-05-29T08:31:18;96875.88;;;25.29;72.14
40502;BME280;29631;49.168;9.848;2023-05-29T08:33:44;96866.91;;;25.34;72.70
40502;BME280;29631;49.168;9.848;2023-05-29T08:36:10;96853.09;;;25.35;72.49
40502;BME280;29631;49.168;9.848;2023-05-29T08:38:36;96861.06;;;25.45;72.12
40502;BME280;29631;49.168;9.848;2023-05-29T08:41:02;96859.19;;;25.59;72.21
40502;BME280;29631;49.168;9.848;2023-05-29T08:43:31;96845.22;;;25.57;71.90
40502;BME280;29631;49.168;9.848;2023-05-29T08:46:01;96847.16;;;25.70;71.44
40502;BME280;29631;49.168;9.848;2023-05-29T08:48:30;96854.81;;;25.81;71.53
40502;BME280;29631;49.168;9.848;2023-05-29T08:50:58;96858.16;;;25.92;70.83
40502;BME280;29631;49.168;9.848;2023-05-29T08:53:24;96872.50;;;26.06;70.21
40502;BME280;29631;49.168;9.848;2023-05-29T08:55:52;96867.53;;;26.13;70.31
40502;BME280;29631;49.168;9.848;2023-05-29T08:58:22;96859.94;;;26.15;69.75
40502;BME280;29631;49.168;9.848;2023-05-29T09:00:49;96872.16;;;26.26;70.15
40502;BME280;29631;49.168;9.848;2023-05-29T09:03:15;96867.94;;;26.33;70.35
40502;BME280;29631;49.168;9.848;2023-05-29T09:05:41;96886.94;;;26.46;70.23
40502;BME280;29631;49.168;9.848;2023-05-29T09:08:11;96887.66;;;26.52;70.30
40502;BME280;29631;49.168;9.848;2023-05-29T09:10:45;96881.84;;;26.58;70.33
40502;BME280;29631;49.168;9.848;2023-05-29T09:13:12;96876.84;;;26.65;69.89
40502;BME280;29631;49.168;9.848;2023-05-29T09:15:39;96854.78;;;26.45;69.39
40502;BME280;29631;49.168;9.848;2023-05-29T09:18:08;96875.53;;;26.76;69.35
40502;BME280;29631;49.168;9.848;2023-05-29T09:20:34;96872.22;;;26.79;69.28
40502;BME280;29631;49.168;9.848;2023-05-29T09:23:07;96870.50;;;26.83;69.28
40502;BME280;29631;49.168;9.848;2023-05-29T09:25:41;96872.84;;;26.90;68.69
40502;BME280;29631;49.168;9.848;2023-05-29T09:28:10;96852.78;;;26.91;69.04
40502;BME280;29631;49.168;9.848;2023-05-29T09:30:40;96858.56;;;26.98;68.60
40502;BME280;29631;49.168;9.848;2023-05-29T09:33:08;96874.72;;;27.16;68.17
40502;BME280;29631;49.168;9.848;2023-05-29T09:35:56;96835.13;;;26.93;68.57
40502;BME280;29631;49.168;9.848;2023-05-29T09:38:21;96853.06;;;27.16;67.88
40502;BME280;29631;49.168;9.848;2023-05-29T09:40:46;96853.94;;;27.25;67.78
40502;BME280;29631;49.168;9.848;2023-05-29T09:43:16;96881.97;;;27.42;67.99
40502;BME280;29631;49.168;9.848;2023-05-29T09:45:45;96837.91;;;27.15;68.08
40502;BME280;29631;49.168;9.848;2023-05-29T09:48:18;96862.72;;;27.44;67.38
40502;BME280;29631;49.168;9.848;2023-05-29T09:50:45;96865.81;;;27.51;67.71
40502;BME280;29631;49.168;9.848;2023-05-29T09:53:22;96871.09;;;27.56;66.84
40502;BME280;29631;49.168;9.848;2023-05-29T09:55:53;96872.63;;;27.62;66.84
40502;BME280;29631;49.168;9.848;2023-05-29T09:58:21;96864.88;;;27.69;67.20
40502;BME280;29631;49.168;9.848;2023-05-29T10:00:48;96871.44;;;27.76;66.79
40502;BME280;29631;49.168;9.848;2023-05-29T10:03:15;96867.03;;;27.80;66.44
40502;BME280;29631;49.168;9.848;2023-05-29T10:05:43;96877.63;;;27.90;66.78
40502;BME280;29631;49.168;9.848;2023-05-29T10:08:14;96873.81;;;27.91;66.04
40502;BME280;29631;49.168;9.848;2023-05-29T10:10:46;96871.47;;;27.98;65.55
40502;BME280;29631;49.168;9.848;2023-05-29T10:13:15;96875.97;;;28.02;65.52
40502;BME280;29631;49.168;9.848;2023-05-29T10:15:44;96873.91;;;28.08;66.06
40502;BME280;29631;49.168;9.848;2023-05-29T10:18:26;96878.09;;;28.14;65.33
40502;BME280;29631;49.168;9.848;2023-05-29T10:20:55;96869.66;;;28.15;65.80
40502;BME280;29631;49.168;9.848;2023-05-29T10:23:25;96871.75;;;28.18;65.06
40502;BME280;29631;49.168;9.848;2023-05-29T10:26:03;96868.16;;;28.31;64.86
40502;BME280;29631;49.168;9.848;2023-05-29T10:28:33;96872.66;;;28.36;65.03
40502;BME280;29631;49.168;9.848;2023-05-29T10:31:09;96870.31;;;28.43;64.93
40502;BME280;29631;49.168;9.848;2023-05-29T10:36:21;96871.97;;;28.52;64.86
40502;BME280;29631;49.168;9.848;2023-05-29T10:38:50;96861.72;;;28.49;64.92
40502;BME280;29631;49.168;9.848;2023-05-29T10:43:58;96852.50;;;28.59;64.12
40502;BME280;29631;49.168;9.848;2023-05-29T10:49:22;96861.50;;;28.76;62.99
40502;BME280;29631;49.168;9.848;2023-05-29T10:51:49;96853.88;;;28.78;63.21
40502;BME280;29631;49.168;9.848;2023-05-29T10:54:15;96861.56;;;28.84;63.02
40502;BME280;29631;49.168;9.848;2023-05-29T10:56:55;96853.13;;;28.86;62.54
40502;BME280;29631;49.168;9.848;2023-05-29T10:59:21;96847.84;;;28.89;63.41
40502;BME280;29631;49.168;9.848;2023-05-29T11:01:47;96848.03;;;28.93;63.20
40502;BME280;29631;49.168;9.848;2023-05-29T11:06:46;96845.66;;;29.00;62.70
40502;BME280;29631;49.168;9.848;2023-05-29T11:09:37;96849.16;;;29.09;62.33
40502;BME280;29631;49.168;9.848;2023-05-29T11:12:23;96849.66;;;29.11;61.76
40502;BME280;29631;49.168;9.848;2023-05-29T11:15:10;96856.03;;;29.15;62.34
40502;BME280;29631;49.168;9.848;2023-05-29T11:20:07;96863.41;;;29.23;61.22
40502;BME280;29631;49.168;9.848;2023-05-29T11:23:00;96855.25;;;29.31;61.09
40502;BME280;29631;49.168;9.848;2023-05-29T11:25:28;96857.06;;;29.36;61.55
40502;BME280;29631;49.168;9.848;2023-05-29T11:27:54;96834.97;;;29.29;61.64
40502;BME280;29631;49.168;9.848;2023-05-29T11:30:21;96851.31;;;29.45;61.85
40502;BME280;29631;49.168;9.848;2023-05-29T11:32:49;96854.69;;;29.51;61.80
40502;BME280;29631;49.168;9.848;2023-05-29T11:35:21;96836.13;;;29.44;61.52
40502;BME280;29631;49.168;9.848;2023-05-29T11:37:47;96865.41;;;29.64;61.29
40502;BME280;29631;49.168;9.848;2023-05-29T11:40:15;96847.00;;;29.61;61.34
40502;BME280;29631;49.168;9.848;2023-05-29T11:42:46;96849.38;;;29.71;61.13
40502;BME280;29631;49.168;9.848;2023-05-29T11:45:20;96838.50;;;29.71;61.11
40502;BME280;29631;49.168;9.848;2023-05-29T11:47:59;96856.13;;;29.82;61.51
40502;BME280;29631;49.168;9.848;2023-05-29T11:50:28;96850.69;;;29.82;61.64
40502;BME280;29631;49.168;9.848;2023-05-29T11:52:56;96840.91;;;29.81;60.84
40502;BME280;29631;49.168;9.848;2023-05-29T11:55:23;96827.63;;;29.71;61.55
40502;BME280;29631;49.168;9.848;2023-05-29T11:57:52;96847.78;;;29.79;60.94
40502;BME280;29631;49.168;9.848;2023-05-29T12:00:21;96852.28;;;29.83;61.19
40502;BME280;29631;49.168;9.848;2023-05-29T12:02:47;96855.00;;;29.83;61.33
40502;BME280;29631;49.168;9.848;2023-05-29T12:05:15;96855.81;;;29.92;61.45
40502;BME280;29631;49.168;9.848;2023-05-29T12:07:53;96851.19;;;29.93;61.18
40502;BME280;29631;49.168;9.848;2023-05-29T12:10:20;96849.06;;;29.98;61.48
40502;BME280;29631;49.168;9.848;2023-05-29T12:12:58;96847.63;;;30.01;60.88
40502;BME280;29631;49.168;9.848;2023-05-29T12:15:24;96833.56;;;29.99;61.11
40502;BME280;29631;49.168;9.848;2023-05-29T12:17:51;96792.44;;;29.75;61.42
40502;BME280;29631;49.168;9.848;2023-05-29T12:20:18;96857.69;;;30.09;61.55
40502;BME280;29631;49.168;9.848;2023-05-29T12:22:45;96848.91;;;30.12;61.02
40502;BME280;29631;49.168;9.848;2023-05-29T12:25:21;96870.16;;;30.18;61.05
40502;BME280;29631;49.168;9.848;2023-05-29T12:27:48;96839.47;;;30.09;61.38
40502;BME280;29631;49.168;9.848;2023-05-29T12:32:48;96846.00;;;30.17;60.60
40502;BME280;29631;49.168;9.848;2023-05-29T12:35:25;96846.78;;;30.17;60.68
40502;BME280;29631;49.168;9.848;2023-05-29T12:38:04;96844.84;;;30.26;60.79
40502;BME280;29631;49.168;9.848;2023-05-29T12:40:34;96825.00;;;30.17;61.03
40502;BME280;29631;49.168;9.848;2023-05-29T12:43:05;96842.63;;;30.28;60.92
40502;BME280;29631;49.168;9.848;2023-05-29T12:45:33;96844.47;;;30.36;60.72
40502;BME280;29631;49.168;9.848;2023-05-29T12:48:04;96844.47;;;30.36;60.47
40502;BME280;29631;49.168;9.848;2023-05-29T12:50:38;96843.84;;;30.39;61.25
40502;BME280;29631;49.168;9.848;2023-05-29T12:53:06;96858.28;;;30.48;61.35
40502;BME280;29631;49.168;9.848;2023-05-29T12:55:36;96844.19;;;30.46;60.63
40502;BME280;29631;49.168;9.848;2023-05-29T12:58:12;96843.06;;;30.47;60.38
40502;BME280;29631;49.168;9.848;2023-05-29T13:00:41;96834.88;;;30.47;61.00
40502;BME280;29631;49.168;9.848;2023-05-29T13:03:08;96837.28;;;30.48;60.80
40502;BME280;29631;49.168;9.848;2023-05-29T13:05:35;96832.13;;;30.55;60.99
40502;BME280;29631;49.168;9.848;2023-05-29T13:08:00;96840.09;;;30.60;60.64
40502;BME280;29631;49.168;9.848;2023-05-29T13:10:27;96832.56;;;30.66;61.09
40502;BME280;29631;49.168;9.848;2023-05-29T13:12:54;96827.16;;;30.57;60.15
40502;BME280;29631;49.168;9.848;2023-05-29T13:15:22;96853.53;;;30.65;60.34
40502;BME280;29631;49.168;9.848;2023-05-29T13:17:48;96829.22;;;30.60;60.07
40502;BME280;29631;49.168;9.848;2023-05-29T13:20:14;96829.03;;;30.65;59.60
40502;BME280;29631;49.168;9.848;2023-05-29T13:22:43;96820.06;;;30.65;59.53
40502;BME280;29631;49.168;9.848;2023-05-29T13:25:13;96825.81;;;30.72;59.46
40502;BME280;29631;49.168;9.848;2023-05-29T13:27:45;96809.81;;;30.62;59.71